Time;durP1;ratioP1;P1;durP2;ratioP2;P2;SDS_P1;SDS_P2;PMS_P1;PMS_P2;Temp;Humidity;BMP_temperature;BMP_pressure;BME280_temperature;BME280_humidity;BME280_pressure;Samples;Min_cycle;Max_cycle;Signal;HPM_P1;HPM_P2
2023/04/15 00:01:08;;;;;;;;;;;;;;;27.54;38.05;93194.22;5105148;28;10255;-56
2023/04/15 00:03:34;;;;;;;;;;;;;;;27.56;38.44;93202.69;5079696;28;7516;-55
2023/04/15 00:06:03;;;;;;;;;;;;;;;27.55;38.68;93195.69;5087742;28;8931;-56
2023/04/15 00:08:34;;;;;;;;;;;;;;;27.54;38.51;93203.25;5093948;28;9105;-55
2023/04/15 00:11:13;;;;;;;;;;;;;;;27.54;37.91;93197.72;5099691;28;7151;-55
2023/04/15 00:13:40;;;;;;;;;;;;;;;27.52;38.06;93194.78;5105573;28;9096;-55
2023/04/15 00:16:07;;;;;;;;;;;;;;;27.50;37.93;93188.31;5094502;28;7262;-56
2023/04/15 00:18:35;;;;;;;;;;;;;;;27.53;38.18;93192.75;5109678;28;7364;-55
2023/04/15 00:21:03;;;;;;;;;;;;;;;27.52;38.18;93188.50;5108724;28;7406;-55
2023/04/15 00:23:30;;;;;;;;;;;;;;;27.50;38.08;93194.59;5105543;28;7246;-56
2023/04/15 00:25:56;;;;;;;;;;;;;;;27.48;37.97;93188.88;5089389;28;6990;-56
2023/04/15 00:28:22;;;;;;;;;;;;;;;27.51;38.19;93196.03;5088595;28;7026;-55
2023/04/15 00:30:49;;;;;;;;;;;;;;;27.51;38.28;93190.53;5089805;28;8969;-55
2023/04/15 00:33:17;;;;;;;;;;;;;;;27.50;38.31;93188.31;5099993;28;8915;-55
2023/04/15 00:35:43;;;;;;;;;;;;;;;27.50;38.04;93191.81;5092366;28;7361;-55
2023/04/15 00:38:10;;;;;;;;;;;;;;;27.50;38.09;93186.31;5091958;28;8688;-56
2023/04/15 00:40:36;;;;;;;;;;;;;;;27.50;38.30;93186.31;5099424;28;7154;-55
2023/04/15 00:43:05;;;;;;;;;;;;;;;27.49;38.13;93175.81;5081027;28;7102;-56
2023/04/15 00:45:38;;;;;;;;;;;;;;;27.45;37.99;93178.19;5092760;28;7263;-55
2023/04/15 00:48:08;;;;;;;;;;;;;;;27.48;38.74;93177.84;5105781;28;7113;-55
2023/04/15 00:50:36;;;;;;;;;;;;;;;27.44;38.43;93177.47;5087665;28;7406;-56
2023/04/15 00:53:02;;;;;;;;;;;;;;;27.49;38.63;93184.81;5091473;28;7254;-55
2023/04/15 00:55:33;;;;;;;;;;;;;;;27.48;37.98;93177.84;5091229;28;7118;-56
2023/04/15 00:57:59;;;;;;;;;;;;;;;27.49;38.08;93178.56;5092174;28;8779;-56
2023/04/15 01:00:31;;;;;;;;;;;;;;;27.49;37.91;93182.06;5093708;28;7242;-56
2023/04/15 01:02:59;;;;;;;;;;;;;;;27.47;38.13;93184.63;5094149;28;7377;-55
2023/04/15 01:05:27;;;;;;;;;;;;;;;27.48;37.93;93172.31;5111021;28;7261;-56
2023/04/15 01:08:03;;;;;;;;;;;;;;;27.47;38.08;93183.91;5090579;28;7307;-55
2023/04/15 01:10:36;;;;;;;;;;;;;;;27.48;38.54;93177.09;5088339;28;7263;-56
2023/04/15 01:13:05;;;;;;;;;;;;;;;27.47;38.38;93181.88;5094400;28;7255;-55
2023/04/15 01:15:41;;;;;;;;;;;;;;;27.47;37.87;93181.88;5095436;28;8741;-56
2023/04/15 01:18:32;;;;;;;;;;;;;;;27.45;38.03;93184.44;5094561;28;7125;-55
2023/04/15 01:21:05;;;;;;;;;;;;;;;27.47;38.10;93184.63;5088025;28;7253;-55
2023/04/15 01:23:46;;;;;;;;;;;;;;;27.44;38.49;93185.75;5090795;28;7286;-55
2023/04/15 01:26:22;;;;;;;;;;;;;;;27.44;38.12;93188.50;5094190;28;7280;-55
2023/04/15 01:29:19;;;;;;;;;;;;;;;27.42;38.65;93191.09;5093981;28;7166;-55
2023/04/15 01:31:55;;;;;;;;;;;;;;;27.41;38.40;93184.09;5054354;28;7216;-55
2023/04/15 01:34:24;;;;;;;;;;;;;;;27.43;38.26;93192.56;5045799;28;7029;-55
2023/04/15 01:37:10;;;;;;;;;;;;;;;27.44;38.25;93185.00;5037855;28;9110;-55
2023/04/15 01:39:59;;;;;;;;;;;;;;;27.44;38.13;93188.50;5054812;28;8951;-55
2023/04/15 01:42:26;;;;;;;;;;;;;;;27.41;38.16;93192.38;5042346;28;7016;-55
2023/04/15 01:45:04;;;;;;;;;;;;;;;27.40;38.23;93190.16;5052449;28;7267;-56
2023/04/15 01:47:33;;;;;;;;;;;;;;;27.41;38.50;93189.59;5049986;28;9430;-55
2023/04/15 01:50:15;;;;;;;;;;;;;;;27.41;38.33;93194.38;5050502;28;9399;-56
2023/04/15 01:52:45;;;;;;;;;;;;;;;27.39;37.68;93191.44;5035923;28;7189;-55
2023/04/15 01:55:13;;;;;;;;;;;;;;;27.39;38.61;93197.72;5051895;28;7238;-55
2023/04/15 01:58:11;;;;;;;;;;;;;;;27.39;37.86;93192.19;5034076;28;7290;-55
2023/04/15 02:00:47;;;;;;;;;;;;;;;27.39;38.41;93194.19;5025238;28;9777;-55
2023/04/15 02:03:18;;;;;;;;;;;;;;;27.38;38.03;93201.75;5008230;28;7113;-56
2023/04/15 02:05:44;;;;;;;;;;;;;;;27.37;38.68;93197.53;5027532;28;9207;-56
2023/04/15 02:08:11;;;;;;;;;;;;;;;27.36;38.36;93193.28;5032358;28;8831;-55
2023/04/15 02:10:37;;;;;;;;;;;;;;;27.39;38.29;93202.47;5047558;28;7780;-56
2023/04/15 02:13:06;;;;;;;;;;;;;;;27.39;37.82;93194.94;5040050;28;7279;-56
2023/04/15 02:15:32;;;;;;;;;;;;;;;27.36;38.54;93192.56;5029227;28;7750;-55
2023/04/15 02:17:59;;;;;;;;;;;;;;;27.36;38.27;93198.78;5040512;28;7220;-55
2023/04/15 02:20:38;;;;;;;;;;;;;;;27.37;38.24;93194.03;5048142;28;7241;-55
2023/04/15 02:23:15;;;;;;;;;;;;;;;27.34;38.36;93198.59;5027162;28;9546;-56
2023/04/15 02:26:07;;;;;;;;;;;;;;;27.36;38.38;93198.78;5030872;28;7121;-55
2023/04/15 02:29:01;;;;;;;;;;;;;;;27.36;38.33;93198.78;5025825;28;7512;-55
2023/04/15 02:31:44;;;;;;;;;;;;;;;27.37;38.42;93199.53;5044664;28;9124;-55
2023/04/15 02:34:13;;;;;;;;;;;;;;;27.33;38.36;93194.38;5049918;28;8932;-56
2023/04/15 02:36:53;;;;;;;;;;;;;;;27.34;38.21;93195.81;5073717;28;9016;-55
2023/04/15 02:40:09;;;;;;;;;;;;;;;27.35;37.81;93191.81;5085581;28;7030;-56
2023/04/15 02:42:48;;;;;;;;;;;;;;;27.33;38.27;93190.88;5035141;28;7126;-56
2023/04/15 02:45:26;;;;;;;;;;;;;;;27.33;38.26;93186.09;5034742;28;7213;-56
2023/04/15 02:47:56;;;;;;;;;;;;;;;27.32;38.81;93190.13;5047844;28;8792;-55
2023/04/15 02:50:38;;;;;;;;;;;;;;;27.33;38.88;93197.13;5051274;28;7039;-56
2023/04/15 02:53:24;;;;;;;;;;;;;;;27.34;38.37;93201.34;5051397;28;9225;-55
2023/04/15 02:55:54;;;;;;;;;;;;;;;27.33;38.29;93193.63;5031058;28;7527;-56
2023/04/15 02:58:33;;;;;;;;;;;;;;;27.31;38.40;93191.41;5050780;28;7531;-55
2023/04/15 03:01:13;;;;;;;;;;;;;;;27.34;38.28;93197.88;5051476;28;7152;-55
2023/04/15 03:04:10;;;;;;;;;;;;;;;27.34;38.49;93195.09;5034764;28;9301;-55
2023/04/15 03:07:03;;;;;;;;;;;;;;;27.31;38.47;93199.69;4965071;28;7266;-56
2023/04/15 03:09:44;;;;;;;;;;;;;;;27.31;37.72;93201.72;4987310;28;7253;-55
2023/04/15 03:12:36;;;;;;;;;;;;;;;27.30;38.48;93208.50;4986739;28;9065;-55
2023/04/15 03:15:17;;;;;;;;;;;;;;;27.28;38.30;93202.81;4963121;28;9304;-56
2023/04/15 03:17:54;;;;;;;;;;;;;;;27.28;38.84;93197.28;4972768;28;7588;-55
2023/04/15 03:20:22;;;;;;;;;;;;;;;27.24;38.68;93194.16;5024797;28;9007;-55
2023/04/15 03:23:09;;;;;;;;;;;;;;;27.23;38.47;93201.69;5030779;28;7452;-55
2023/04/15 03:25:50;;;;;;;;;;;;;;;27.21;38.12;93195.28;5029361;28;7078;-55
2023/04/15 03:28:46;;;;;;;;;;;;;;;27.18;38.80;93197.09;5031090;28;7505;-55
2023/04/15 03:31:19;;;;;;;;;;;;;;;27.19;38.42;93195.81;5030923;28;7197;-55
2023/04/15 03:33:55;;;;;;;;;;;;;;;27.19;38.80;93197.81;5030861;28;7028;-55
2023/04/15 03:36:21;;;;;;;;;;;;;;;27.16;38.74;93194.16;5012600;28;7020;-55
2023/04/15 03:38:57;;;;;;;;;;;;;;;27.15;38.54;93197.44;5031082;28;7253;-55
2023/04/15 03:41:43;;;;;;;;;;;;;;;27.14;38.48;93191.22;5025124;28;9084;-56
2023/04/15 03:44:10;;;;;;;;;;;;;;;27.15;38.70;93192.69;5094452;28;7537;-56
2023/04/15 03:46:53;;;;;;;;;;;;;;;27.15;39.20;93186.41;5089971;28;9075;-55
2023/04/15 03:49:44;;;;;;;;;;;;;;;27.15;38.65;93187.16;5108294;28;9310;-55
2023/04/15 03:52:26;;;;;;;;;;;;;;;27.13;38.40;93181.44;5078107;28;7245;-55
2023/04/15 03:55:13;;;;;;;;;;;;;;;27.12;38.59;93185.47;5093563;28;7455;-55
2023/04/15 03:57:43;;;;;;;;;;;;;;;27.12;38.26;93182.00;5088222;28;7233;-55
2023/04/15 04:00:12;;;;;;;;;;;;;;;27.08;38.48;93181.63;5095504;28;8734;-55
2023/04/15 04:02:48;;;;;;;;;;;;;;;27.08;38.99;93185.13;5096957;28;7222;-55
2023/04/15 04:05:48;;;;;;;;;;;;;;;27.15;40.57;93189.16;5094373;28;9317;-55
2023/04/15 04:08:35;;;;;;;;;;;;;;;27.12;39.84;93179.25;4984378;28;7008;-55
2023/04/15 04:11:01;;;;;;;;;;;;;;;27.11;39.30;93183.28;4992970;28;7362;-55
2023/04/15 04:13:58;;;;;;;;;;;;;;;27.14;38.89;93188.47;4979980;28;8645;-55
2023/04/15 04:16:24;;;;;;;;;;;;;;;27.06;38.99;93182.16;4970484;28;7136;-55
2023/04/15 04:18:59;;;;;;;;;;;;;;;27.06;38.78;93195.22;4973253;28;7024;-55
2023/04/15 04:21:45;;;;;;;;;;;;;;;27.06;38.60;93193.22;4973290;28;9055;-55
2023/04/15 04:24:11;;;;;;;;;;;;;;;27.07;38.67;93196.72;4971008;28;9057;-55
2023/04/15 04:26:37;;;;;;;;;;;;;;;27.03;38.77;93194.31;4970381;28;7154;-56
2023/04/15 04:29:03;;;;;;;;;;;;;;;27.06;39.01;93201.47;4971258;28;7021;-55
2023/04/15 04:31:29;;;;;;;;;;;;;;;27.05;39.27;93200.03;4971307;28;7075;-56
2023/04/15 04:33:55;;;;;;;;;;;;;;;27.02;39.06;93198.34;4971574;28;8272;-55
2023/04/15 04:36:21;;;;;;;;;;;;;;;27.03;38.83;93193.56;4971617;28;7081;-55
2023/04/15 04:38:48;;;;;;;;;;;;;;;27.03;39.23;93194.31;4971468;28;8054;-55
2023/04/15 04:41:14;;;;;;;;;;;;;;;27.04;38.66;93192.28;4970417;28;7470;-56
2023/04/15 04:43:44;;;;;;;;;;;;;;;27.05;39.09;93196.53;4997845;28;8733;-55
2023/04/15 04:46:10;;;;;;;;;;;;;;;27.04;39.03;93195.03;5027669;28;7004;-55
2023/04/15 04:48:36;;;;;;;;;;;;;;;27.03;39.09;93194.31;5029411;28;7050;-56
2023/04/15 04:51:06;;;;;;;;;;;;;;;27.03;39.28;93196.34;5030179;28;7012;-55
2023/04/15 04:53:36;;;;;;;;;;;;;;;27.02;39.55;93198.34;5069653;28;7316;-56
2023/04/15 04:56:02;;;;;;;;;;;;;;;27.02;39.30;93184.56;5105703;27;8690;-55
2023/04/15 04:58:28;;;;;;;;;;;;;;;27.04;39.17;93195.03;5081527;28;8244;-55
2023/04/15 05:00:55;;;;;;;;;;;;;;;27.04;38.64;93190.25;5091041;28;7077;-56
2023/04/15 05:03:26;;;;;;;;;;;;;;;27.03;38.94;93185.28;5090656;28;7407;-56
2023/04/15 05:05:54;;;;;;;;;;;;;;;27.02;39.13;93198.34;5105679;28;6975;-55
2023/04/15 05:08:20;;;;;;;;;;;;;;;27.02;39.11;93194.84;5091625;28;7639;-55
2023/04/15 05:10:46;;;;;;;;;;;;;;;27.01;39.23;93193.41;5103985;28;9206;-56
2023/04/15 05:13:20;;;;;;;;;;;;;;;27.00;39.00;93187.13;5089867;28;6860;-56
2023/04/15 05:15:48;;;;;;;;;;;;;;;27.03;39.38;93199.09;5089486;28;7163;-55
2023/04/15 05:18:24;;;;;;;;;;;;;;;27.01;39.46;93205.19;5090177;28;9215;-55
2023/04/15 05:20:50;;;;;;;;;;;;;;;26.99;39.04;93198.72;5094373;28;7109;-55
2023/04/15 05:23:19;;;;;;;;;;;;;;;26.97;39.48;93202.00;5093227;28;8977;-55
2023/04/15 05:25:56;;;;;;;;;;;;;;;26.95;39.07;93204.59;5094908;28;8958;-55
2023/04/15 05:28:34;;;;;;;;;;;;;;;26.96;39.38;93211.59;5104330;28;7375;-55
2023/04/15 05:31:07;;;;;;;;;;;;;;;26.96;39.44;93217.09;5092889;28;8788;-56
2023/04/15 05:33:58;;;;;;;;;;;;;;;26.97;39.09;93215.09;5090512;28;7125;-55
2023/04/15 05:36:33;;;;;;;;;;;;;;;26.99;39.30;93215.28;5094125;28;7084;-55
2023/04/15 05:39:52;;;;;;;;;;;;;;;26.99;39.12;93218.03;5098622;28;9241;-55
2023/04/15 05:42:21;;;;;;;;;;;;;;;26.98;39.43;93214.53;5103146;28;8791;-55
2023/04/15 05:44:55;;;;;;;;;;;;;;;26.98;39.56;93208.28;5093633;28;7992;-55
2023/04/15 05:47:55;;;;;;;;;;;;;;;26.99;39.05;93216.00;5098571;28;8858;-55
2023/04/15 05:50:23;;;;;;;;;;;;;;;27.00;39.04;93211.22;5054285;28;9400;-55
2023/04/15 05:52:49;;;;;;;;;;;;;;;26.98;39.30;93220.06;5045578;28;9086;-55
2023/04/15 05:55:26;;;;;;;;;;;;;;;26.97;38.99;93224.09;5071311;28;9127;-55
2023/04/15 05:58:26;;;;;;;;;;;;;;;26.95;39.32;93221.13;5050571;28;7245;-55
2023/04/15 06:00:52;;;;;;;;;;;;;;;26.94;39.42;93225.19;5066002;28;7539;-55
2023/04/15 06:03:27;;;;;;;;;;;;;;;26.94;39.24;93218.94;5053050;28;10870;-55
2023/04/15 06:05:53;;;;;;;;;;;;;;;26.94;39.70;93216.91;5062848;28;9459;-55
2023/04/15 06:08:30;;;;;;;;;;;;;;;26.99;39.24;93220.81;5044819;28;7306;-55
2023/04/15 06:10:58;;;;;;;;;;;;;;;26.96;39.63;93217.09;5063008;28;7017;-55
2023/04/15 06:13:27;;;;;;;;;;;;;;;26.97;38.69;93223.38;5070576;28;7488;-55
2023/04/15 06:15:56;;;;;;;;;;;;;;;26.91;39.09;93223.53;5048835;28;7004;-56
2023/04/15 06:18:42;;;;;;;;;;;;;;;26.93;39.25;93220.94;5059258;28;7457;-55
2023/04/15 06:21:20;;;;;;;;;;;;;;;26.93;39.57;93226.47;5060826;28;7346;-55
2023/04/15 06:24:05;;;;;;;;;;;;;;;26.94;39.02;93227.22;5070467;28;7738;-55
2023/04/15 06:26:38;;;;;;;;;;;;;;;26.96;39.41;93221.88;5095126;28;9376;-55
2023/04/15 06:29:22;;;;;;;;;;;;;;;26.97;39.72;93226.84;5103762;28;7259;-55
2023/04/15 06:31:53;;;;;;;;;;;;;;;26.94;39.77;93224.47;5088995;28;7031;-56
2023/04/15 06:34:20;;;;;;;;;;;;;;;26.89;39.03;93217.81;5091058;28;7514;-55
2023/04/15 06:36:47;;;;;;;;;;;;;;;26.91;39.26;93226.28;5108334;28;9020;-55
2023/04/15 06:39:19;;;;;;;;;;;;;;;26.90;39.18;93214.50;5107506;28;8777;-55
2023/04/15 06:41:52;;;;;;;;;;;;;;;26.93;38.99;93218.19;5096449;28;8814;-55
2023/04/15 06:44:30;;;;;;;;;;;;;;;26.92;39.72;93222.25;5092151;28;7119;-55
2023/04/15 06:47:29;;;;;;;;;;;;;;;26.92;39.74;93222.25;5089734;28;9549;-56
2023/04/15 06:49:55;;;;;;;;;;;;;;;26.90;39.52;93230.34;5079466;28;9021;-55
2023/04/15 06:52:52;;;;;;;;;;;;;;;26.92;39.56;93227.78;5091058;28;7286;-56
2023/04/15 06:55:54;;;;;;;;;;;;;;;26.93;39.27;93226.47;5092141;28;7282;-55
2023/04/15 06:58:36;;;;;;;;;;;;;;;26.95;39.32;93232.19;5109099;28;7046;-55
2023/04/15 07:01:03;;;;;;;;;;;;;;;26.98;39.29;93227.59;5083401;28;7211;-56
2023/04/15 07:03:30;;;;;;;;;;;;;;;26.97;39.86;93226.84;5091613;28;7222;-55
2023/04/15 07:06:10;;;;;;;;;;;;;;;26.98;39.62;93233.09;5087625;28;9394;-55
2023/04/15 07:09:07;;;;;;;;;;;;;;;27.01;39.36;93226.50;5089148;28;9530;-55
2023/04/15 07:11:35;;;;;;;;;;;;;;;27.01;38.59;93227.25;5041574;28;7210;-55
2023/04/15 07:14:22;;;;;;;;;;;;;;;26.99;38.89;93232.56;5033357;28;7547;-55
2023/04/15 07:16:58;;;;;;;;;;;;;;;26.97;38.71;93229.59;5043196;28;7282;-55
2023/04/15 07:19:37;;;;;;;;;;;;;;;26.97;39.01;93229.59;5048024;28;9005;-56
2023/04/15 07:22:03;;;;;;;;;;;;;;;26.98;38.70;93219.31;5043943;28;7289;-55
2023/04/15 07:24:34;;;;;;;;;;;;;;;26.96;39.17;93224.66;5032877;28;9262;-56
2023/04/15 07:27:03;;;;;;;;;;;;;;;26.94;38.84;93222.44;5034007;28;7118;-55
2023/04/15 07:29:30;;;;;;;;;;;;;;;27.01;39.20;93224.50;5029976;28;7028;-55
2023/04/15 07:31:58;;;;;;;;;;;;;;;27.04;38.83;93225.41;5019067;28;8141;-55
2023/04/15 07:34:25;;;;;;;;;;;;;;;27.02;38.80;93214.91;5030012;28;7144;-55
2023/04/15 07:36:51;;;;;;;;;;;;;;;27.00;39.02;93222.25;5022909;28;9437;-56
2023/04/15 07:39:17;;;;;;;;;;;;;;;26.98;38.80;93217.28;5044035;28;9240;-56
2023/04/15 07:41:45;;;;;;;;;;;;;;;26.98;38.69;93214.53;5041517;28;7445;-56
2023/04/15 07:44:13;;;;;;;;;;;;;;;26.97;39.28;93217.84;5036440;28;8830;-56
2023/04/15 07:46:40;;;;;;;;;;;;;;;26.98;39.09;93217.28;5027432;28;7542;-56
2023/04/15 07:49:06;;;;;;;;;;;;;;;26.98;38.91;93220.06;5097138;28;7679;-56
2023/04/15 07:51:37;;;;;;;;;;;;;;;26.94;39.11;93218.94;5088291;28;8728;-56
2023/04/15 07:54:03;;;;;;;;;;;;;;;26.93;38.86;93220.94;5098627;28;7056;-55
2023/04/15 07:56:29;;;;;;;;;;;;;;;26.93;39.45;93218.19;5084605;28;7031;-56
2023/04/15 07:58:57;;;;;;;;;;;;;;;26.96;39.65;93227.41;5087746;28;7336;-56
2023/04/15 08:01:25;;;;;;;;;;;;;;;26.94;39.15;93219.69;5090848;28;8215;-55
2023/04/15 08:04:01;;;;;;;;;;;;;;;26.96;39.02;93217.09;5085441;28;8496;-56
2023/04/15 08:06:47;;;;;;;;;;;;;;;26.94;38.79;93219.69;5088389;28;6863;-56
2023/04/15 08:09:45;;;;;;;;;;;;;;;26.96;39.06;93219.88;5101421;28;7371;-56
2023/04/15 08:12:22;;;;;;;;;;;;;;;26.97;39.09;93221.31;5088109;28;8142;-56
2023/04/15 08:15:08;;;;;;;;;;;;;;;26.97;38.88;93218.56;5070734;28;7013;-56
2023/04/15 08:17:33;;;;;;;;;;;;;;;26.99;38.38;93218.03;5075316;28;7263;-56
2023/04/15 08:20:03;;;;;;;;;;;;;;;26.99;38.98;93220.81;5094721;28;7189;-56
2023/04/15 08:22:46;;;;;;;;;;;;;;;27.00;38.80;93217.47;5091776;28;7063;-56
2023/04/15 08:25:18;;;;;;;;;;;;;;;26.98;39.16;93217.28;5086208;28;8079;-56
2023/04/15 08:27:45;;;;;;;;;;;;;;;26.96;38.77;93214.34;5103928;28;7325;-55
2023/04/15 08:30:11;;;;;;;;;;;;;;;27.00;38.66;93225.75;5086514;28;9456;-56
2023/04/15 08:32:37;;;;;;;;;;;;;;;26.98;38.91;93228.34;5074181;28;7268;-56
2023/04/15 08:35:04;;;;;;;;;;;;;;;26.97;38.94;93221.31;5087061;28;7109;-55
2023/04/15 08:37:32;;;;;;;;;;;;;;;27.00;38.84;93228.53;5089942;28;9065;-56
2023/04/15 08:40:27;;;;;;;;;;;;;;;27.00;39.30;93222.25;5091929;28;7296;-56
2023/04/15 08:43:37;;;;;;;;;;;;;;;27.01;39.12;93232.03;5102902;28;9324;-55
2023/04/15 08:46:21;;;;;;;;;;;;;;;27.00;39.26;93223.00;5028880;28;8830;-56
2023/04/15 08:48:56;;;;;;;;;;;;;;;26.97;38.90;93221.31;5053375;28;7656;-56
2023/04/15 08:51:23;;;;;;;;;;;;;;;27.00;38.95;93231.28;5051049;28;9165;-56
2023/04/15 08:53:51;;;;;;;;;;;;;;;26.99;38.33;93229.06;5047289;28;7497;-55
2023/04/15 08:56:33;;;;;;;;;;;;;;;27.01;39.06;93230.00;5053440;28;7270;-55
2023/04/15 08:59:11;;;;;;;;;;;;;;;26.98;39.37;93230.34;5052035;28;8239;-56
2023/04/15 09:01:51;;;;;;;;;;;;;;;26.97;39.23;93226.84;5032792;28;9102;-55
2023/04/15 09:04:47;;;;;;;;;;;;;;;26.99;38.71;93235.31;5053027;28;7297;-55
2023/04/15 09:07:33;;;;;;;;;;;;;;;27.03;38.88;93243.25;4971943;28;7053;-55
2023/04/15 09:10:20;;;;;;;;;;;;;;;27.00;38.81;93236.06;4972974;28;9130;-56
2023/04/15 09:13:29;;;;;;;;;;;;;;;26.96;39.31;93239.19;4985781;28;8097;-56
2023/04/15 09:16:16;;;;;;;;;;;;;;;26.94;38.80;93246.53;4995892;28;8847;-55
2023/04/15 09:18:42;;;;;;;;;;;;;;;26.96;38.90;93243.97;5040728;28;7446;-55
2023/04/15 09:21:18;;;;;;;;;;;;;;;26.95;39.46;93254.25;5035016;28;7026;-56
2023/04/15 09:24:27;;;;;;;;;;;;;;;26.95;38.58;93250.78;5045358;28;9239;-56
2023/04/15 09:27:07;;;;;;;;;;;;;;;26.97;38.88;93256.50;5044430;28;7325;-56
2023/04/15 09:29:50;;;;;;;;;;;;;;;26.98;38.83;93253.16;5026168;28;7259;-56
2023/04/15 09:32:27;;;;;;;;;;;;;;;26.98;39.28;93260.72;5046417;28;7151;-55
2023/04/15 09:34:57;;;;;;;;;;;;;;;26.97;38.53;93265.47;5034237;28;9228;-55
2023/04/15 09:38:11;;;;;;;;;;;;;;;26.98;38.92;93263.47;5026992;28;7067;-56
2023/04/15 09:40:47;;;;;;;;;;;;;;;27.00;38.77;93269.19;5021143;28;8704;-55
2023/04/15 09:43:46;;;;;;;;;;;;;;;27.02;39.14;93272.13;5047758;28;8634;-55
2023/04/15 09:46:42;;;;;;;;;;;;;;;27.00;39.22;93272.69;5055824;28;7391;-55
2023/04/15 09:49:27;;;;;;;;;;;;;;;26.98;38.88;93282.78;5051774;28;9656;-56
2023/04/15 09:52:13;;;;;;;;;;;;;;;27.02;39.21;93277.63;5043382;28;7591;-55
2023/04/15 09:54:39;;;;;;;;;;;;;;;27.00;39.23;93285.72;5035844;28;7036;-56
2023/04/15 09:57:33;;;;;;;;;;;;;;;27.04;39.00;93280.59;5056204;28;8756;-55
2023/04/15 10:00:00;;;;;;;;;;;;;;;26.98;38.84;93280.75;5069219;28;8960;-55
2023/04/15 10:02:31;;;;;;;;;;;;;;;27.01;39.26;93285.19;5045808;28;9390;-55
2023/04/15 10:04:58;;;;;;;;;;;;;;;27.02;38.64;93294.94;5043616;28;7192;-55
2023/04/15 10:07:32;;;;;;;;;;;;;;;27.01;38.73;93293.47;5046238;28;8936;-56
2023/04/15 10:10:02;;;;;;;;;;;;;;;27.04;38.75;93294.38;5044335;28;7103;-56
2023/04/15 10:12:30;;;;;;;;;;;;;;;27.03;38.91;93292.94;5046576;28;7097;-55
2023/04/15 10:15:03;;;;;;;;;;;;;;;27.03;38.97;93296.44;5040521;28;7252;-56
2023/04/15 10:17:35;;;;;;;;;;;;;;;27.01;38.86;93290.72;5035560;28;8998;-56
2023/04/15 10:20:04;;;;;;;;;;;;;;;27.03;38.64;93292.94;5034768;28;9004;-56
2023/04/15 10:22:33;;;;;;;;;;;;;;;27.01;38.86;93290.72;5071355;28;8918;-55
2023/04/15 10:25:07;;;;;;;;;;;;;;;27.01;39.05;93296.25;5105499;28;7339;-56
2023/04/15 10:27:38;;;;;;;;;;;;;;;27.02;38.54;93297.69;5088393;28;9084;-56
2023/04/15 10:30:05;;;;;;;;;;;;;;;27.02;38.35;93296.97;5088726;28;9011;-56
2023/04/15 10:32:32;;;;;;;;;;;;;;;27.01;38.81;93295.50;5090180;28;7306;-56
2023/04/15 10:35:03;;;;;;;;;;;;;;;27.01;38.81;93301.03;5067199;28;8732;-56
2023/04/15 10:37:44;;;;;;;;;;;;;;;27.00;38.81;93305.78;5107346;28;7131;-56
2023/04/15 10:40:37;;;;;;;;;;;;;;;27.01;38.56;93298.25;5093105;28;7068;-56
2023/04/15 10:43:05;;;;;;;;;;;;;;;26.97;38.82;93303.41;5087174;28;9584;-56
2023/04/15 10:45:34;;;;;;;;;;;;;;;26.98;38.66;93302.84;5089321;28;9043;-56
2023/04/15 10:48:09;;;;;;;;;;;;;;;26.99;38.76;93311.88;5090015;28;7593;-55
2023/04/15 10:50:36;;;;;;;;;;;;;;;26.99;38.52;93312.59;5103610;28;7224;-56
2023/04/15 10:53:04;;;;;;;;;;;;;;;26.99;38.73;93311.88;5089911;28;7223;-55
2023/04/15 10:55:33;;;;;;;;;;;;;;;26.98;38.23;93308.38;5090057;28;9237;-56
2023/04/15 10:58:03;;;;;;;;;;;;;;;26.99;38.21;93312.59;5090893;28;7855;-55
2023/04/15 11:00:31;;;;;;;;;;;;;;;27.00;37.55;93305.06;5089136;28;7285;-55
2023/04/15 11:03:05;;;;;;;;;;;;;;;27.01;37.42;93317.56;5088559;28;7167;-56
2023/04/15 11:05:38;;;;;;;;;;;;;;;27.02;37.67;93319.03;5083583;28;8917;-55
2023/04/15 11:08:14;;;;;;;;;;;;;;;26.99;37.70;93320.88;5093449;28;7246;-55
2023/04/15 11:10:41;;;;;;;;;;;;;;;26.99;37.44;93323.63;5086540;28;9152;-56
2023/04/15 11:13:10;;;;;;;;;;;;;;;27.01;37.54;93329.34;5084784;28;7023;-55
2023/04/15 11:15:44;;;;;;;;;;;;;;;26.98;37.50;93324.91;5086831;28;9095;-55
2023/04/15 11:18:17;;;;;;;;;;;;;;;26.97;38.09;93333.75;5086543;28;9436;-55
2023/04/15 11:20:47;;;;;;;;;;;;;;;26.94;38.44;93334.84;5105329;28;7369;-56
2023/04/15 11:23:34;;;;;;;;;;;;;;;26.87;38.11;93342.53;5084650;28;7870;-55
2023/04/15 11:26:04;;;;;;;;;;;;;;;26.85;38.36;93349.88;5103894;28;7051;-55
2023/04/15 11:28:32;;;;;;;;;;;;;;;26.79;38.97;93344.53;5089272;28;7047;-56
2023/04/15 11:31:19;;;;;;;;;;;;;;;26.77;38.61;93354.63;5084227;28;8930;-56
2023/04/15 11:34:21;;;;;;;;;;;;;;;26.78;38.72;93356.09;5107464;28;7223;-55
2023/04/15 11:36:55;;;;;;;;;;;;;;;26.75;39.13;93357.91;5107203;28;9086;-56
2023/04/15 11:39:57;;;;;;;;;;;;;;;26.81;38.77;93360.53;5085642;28;7255;-55
2023/04/15 11:43:09;;;;;;;;;;;;;;;26.82;39.12;93362.72;5018464;28;7388;-55
2023/04/15 11:46:13;;;;;;;;;;;;;;;26.88;38.36;93365.34;5025665;28;7358;-55
2023/04/15 11:48:46;;;;;;;;;;;;;;;26.90;38.42;93369.03;4934314;29;7041;-55
2023/04/15 11:51:20;;;;;;;;;;;;;;;26.89;38.34;93378.59;4942427;29;7193;-55
2023/04/15 11:54:03;;;;;;;;;;;;;;;26.83;38.99;93382.78;4933238;29;7073;-56
2023/04/15 11:56:31;;;;;;;;;;;;;;;26.84;38.74;93382.25;4949875;28;7180;-55
2023/04/15 11:59:22;;;;;;;;;;;;;;;26.89;39.03;93397.91;4945761;29;7062;-55
2023/04/15 12:02:11;;;;;;;;;;;;;;;26.92;38.80;93398.84;4943976;28;7585;-55
2023/04/15 12:04:50;;;;;;;;;;;;;;;26.94;38.40;93401.06;4934784;28;8424;-56
2023/04/15 12:07:16;;;;;;;;;;;;;;;26.96;38.46;93412.28;4954037;28;7040;-55
2023/04/15 12:10:10;;;;;;;;;;;;;;;26.98;39.01;93407.72;4951981;28;7043;-56
2023/04/15 12:13:22;;;;;;;;;;;;;;;26.99;38.68;93416.72;4947106;28;7019;-56
2023/04/15 12:16:09;;;;;;;;;;;;;;;26.97;38.51;93411.75;4932866;28;9367;-56
2023/04/15 12:18:38;;;;;;;;;;;;;;;26.99;38.80;93420.22;4958415;28;7044;-56
2023/04/15 12:21:13;;;;;;;;;;;;;;;26.99;38.64;93434.00;5033138;28;7054;-55
2023/04/15 12:23:49;;;;;;;;;;;;;;;26.98;38.61;93432.53;5011730;28;7360;-55
2023/04/15 12:27:12;;;;;;;;;;;;;;;26.99;38.46;93436.78;5020402;28;8832;-56
2023/04/15 12:29:49;;;;;;;;;;;;;;;26.99;38.74;93438.81;5032804;28;7239;-56
2023/04/15 12:32:34;;;;;;;;;;;;;;;27.01;38.81;93444.53;5017532;28;7270;-55
2023/04/15 12:35:01;;;;;;;;;;;;;;;27.01;38.75;93450.78;5033914;28;9057;-55
2023/04/15 12:37:36;;;;;;;;;;;;;;;27.00;38.91;93463.09;5033177;28;9047;-55
2023/04/15 12:44:19;;;;;;;;;;;;;;;26.99;38.90;93469.88;5029779;28;7209;-56
2023/04/15 12:46:47;;;;;;;;;;;;;;;27.00;38.80;93471.38;4977911;28;8476;-56
2023/04/15 12:49:25;;;;;;;;;;;;;;;27.02;38.24;93479.84;4978168;28;8926;-56
2023/04/15 12:51:55;;;;;;;;;;;;;;;27.00;38.66;93474.13;5000103;28;8759;-56
2023/04/15 12:54:31;;;;;;;;;;;;;;;27.00;38.73;93476.91;5053382;28;8710;-55
2023/04/15 12:56:58;;;;;;;;;;;;;;;27.02;38.57;93488.13;5055992;28;9698;-56
2023/04/15 12:59:39;;;;;;;;;;;;;;;27.03;38.60;93488.88;5070599;28;7497;-55
2023/04/15 13:02:24;;;;;;;;;;;;;;;27.02;38.50;93496.41;5052128;28;7535;-55
2023/04/15 13:04:59;;;;;;;;;;;;;;;27.05;38.94;93491.84;5054213;28;7142;-56
2023/04/15 13:07:29;;;;;;;;;;;;;;;27.05;38.53;93500.84;5053786;28;7358;-55
2023/04/15 13:10:22;;;;;;;;;;;;;;;27.06;38.80;93498.81;5064362;28;8729;-55
2023/04/15 13:13:39;;;;;;;;;;;;;;;27.07;38.94;93500.31;5063639;28;9302;-55
2023/04/15 13:16:25;;;;;;;;;;;;;;;27.03;39.16;93517.22;5077815;28;9233;-55
2023/04/15 13:18:53;;;;;;;;;;;;;;;27.06;39.19;93509.84;5046736;28;9054;-55
2023/04/15 13:21:54;;;;;;;;;;;;;;;27.05;38.69;93517.41;5074864;28;8331;-55
2023/04/15 13:24:27;;;;;;;;;;;;;;;27.05;38.61;93511.91;5083649;28;9725;-55
2023/04/15 13:27:10;;;;;;;;;;;;;;;27.05;38.45;93511.91;5086084;28;9479;-55
2023/04/15 13:29:43;;;;;;;;;;;;;;;27.07;39.04;93503.81;5100868;28;8893;-55
2023/04/15 13:32:20;;;;;;;;;;;;;;;27.09;39.37;93509.53;5093687;28;9074;-55
2023/04/15 13:34:55;;;;;;;;;;;;;;;27.07;38.93;93522.41;5092383;28;7262;-55
2023/04/15 13:37:26;;;;;;;;;;;;;;;27.09;39.40;93517.06;5099178;28;7209;-55
2023/04/15 13:40:06;;;;;;;;;;;;;;;27.06;38.16;93524.41;5095105;28;7202;-55
2023/04/15 13:42:59;;;;;;;;;;;;;;;27.10;38.58;93533.06;5094115;28;9416;-55
2023/04/15 13:45:34;;;;;;;;;;;;;;;27.10;38.97;93541.34;5106433;28;7155;-55
2023/04/15 13:48:55;;;;;;;;;;;;;;;27.11;38.81;93537.34;5081483;28;7115;-55
2023/04/15 13:51:46;;;;;;;;;;;;;;;27.10;39.08;93540.63;5031899;28;7641;-55